Thailine 9 — 9WGP9 — position and weather

sailwx.info

Track history (hours):
 
Tides and Currents Weather Stations Pressure Air Temp Water Temp Dewpoint Dewpoint Depression Visibility Wind Speed Wind Dir Waves Ship Positions

Thailine 9

Last reported at 2016-May-11 10:12 UTC. Time now 2016-May-29 23:05 UTC.
Position N 34°34' E 134°51'.
Warning: this ship's position is 18 days out of date.

Length 113 m; draft 4.9 m.

Type: Ship. MMSI: 533791000.

Date/timePositionNaut miles runAvg speedWind from/ knotsBaromVisibWave heightAir tempDewpointWater temp
2016-May-11 10:12N 34°34' E 134°51'6 9.9
2016-May-11 09:33N 34°37' E 134°58'8 8.3
2016-May-11 08:33N 34°36' E 135°08'9 9.1
2016-May-11 07:33N 34°39' E 135°18'3 3.5
2016-May-11 06:33N 34°42' E 135°17'0 0.0
2016-May-11 05:33N 34°42' E 135°17'0 0.0
2016-May-11 04:33N 34°42' E 135°17'0 0.0
2016-May-11 03:27N 34°42' E 135°17'0 0.0
2016-May-11 01:21N 34°42' E 135°17'0 0.0
2016-May-11 00:33N 34°42' E 135°17'0 0.0
2016-May-10 23:21N 34°42' E 135°17'0 0.0
2016-May-10 22:27N 34°42' E 135°17'0 0.0
2016-May-10 21:33N 34°42' E 135°17'0 0.0
2016-May-10 20:33N 34°42' E 135°17'0 0.0
2016-May-10 19:33N 34°42' E 135°17'0 0.0
2016-May-10 18:33N 34°42' E 135°17'0 0.0
2016-May-10 17:33N 34°42' E 135°17'0 0.0
2016-May-10 16:33N 34°42' E 135°17'0 0.0
2016-May-10 15:33N 34°42' E 135°17'0 0.0
2016-May-10 14:33N 34°42' E 135°17'0 0.0
2016-May-10 13:33N 34°42' E 135°17'0 0.0
2016-May-10 12:27N 34°42' E 135°17'0 0.0
2016-May-10 11:33N 34°42' E 135°17'0 0.0
2016-May-10 10:33N 34°42' E 135°17'0 0.0
2016-May-10 09:33N 34°42' E 135°17'0 0.0
2016-May-10 08:33N 34°42' E 135°17'0 0.0
2016-May-10 07:30N 34°42' E 135°17'0 0.0
2016-May-10 06:30N 34°42' E 135°17'0 0.0
2016-May-10 05:30N 34°42' E 135°17'0 0.0
2016-May-10 04:30N 34°42' E 135°17'0 0.0
2016-May-10 03:30N 34°42' E 135°17'0 0.0
2016-May-10 02:30N 34°42' E 135°17'0 0.0
2016-May-10 01:30N 34°42' E 135°17'1 0.7
2016-May-10 00:33N 34°42' E 135°18'9 8.8
2016-May-09 23:33N 34°33' E 135°15'1110.9
2016-May-09 22:33N 34°25' E 135°06'1110.7
2016-May-09 21:32N 34°16' E 134°59'1111.2
2016-May-09 20:33N 34°05' E 134°59'232 6.1
2016-May-08 06:24N 34°42' E 139°36'1211.8
2016-May-08 05:22N 34°46' E 139°50'1111.1
2016-May-08 04:22N 34°52' E 140°02'911.2
2016-May-08 03:33N 34°58' E 140°10'2410.7
2016-May-08 01:22N 35°13' E 140°33'1810.1
2016-May-07 23:33N 35°27' E 140°46'1010.1
2016-May-07 22:33N 35°35' E 140°54'1010.2
2016-May-07 21:32N 35°44' E 140°60'1110.9
2016-May-07 20:33N 35°55' E 141°01'1111.1
2016-May-07 19:33N 36°06' E 141°02'1111.2
2016-May-07 18:33N 36°17' E 141°02'1211.5
2016-May-07 17:32N 36°29' E 141°04'  
2016-May-03 10:30N 36°10' E 141°02'2811.8
2016-May-03 08:07N 35°42' E 140°59'712.2
2016-May-03 07:32N 35°36' E 140°55'1313.4
2016-May-03 06:33N 35°25' E 140°45'1613.7
2016-May-03 05:25N 35°13' E 140°33'2412.7
2016-May-03 03:32N 34°59' E 140°10'1312.5
2016-May-03 02:30N 34°52' E 139°57'  
Track history (hours):
 
Tides and Currents Weather Stations Pressure Air Temp Water Temp Dewpoint Dewpoint Depression Visibility Wind Speed Wind Dir Waves Ship Positions

Thailine 9

Last reported at 2016-May-11 10:12 UTC. Time now 2016-May-29 23:05 UTC.
Position N 34°34' E 134°51'.
Warning: this ship's position is 18 days out of date.

Length 113 m; draft 4.9 m.

Type: Ship. MMSI: 533791000.

Date/timePositionNaut miles runAvg speedWind from/ knotsBaromVisibWave heightAir tempDewpointWater temp
2016-May-11 10:12N 34°34' E 134°51'6 9.9
2016-May-11 09:33N 34°37' E 134°58'8 8.3
2016-May-11 08:33N 34°36' E 135°08'9 9.1
2016-May-11 07:33N 34°39' E 135°18'3 3.5
2016-May-11 06:33N 34°42' E 135°17'0 0.0
2016-May-11 05:33N 34°42' E 135°17'0 0.0
2016-May-11 04:33N 34°42' E 135°17'0 0.0
2016-May-11 03:27N 34°42' E 135°17'0 0.0
2016-May-11 01:21N 34°42' E 135°17'0 0.0
2016-May-11 00:33N 34°42' E 135°17'0 0.0
2016-May-10 23:21N 34°42' E 135°17'0 0.0
2016-May-10 22:27N 34°42' E 135°17'0 0.0
2016-May-10 21:33N 34°42' E 135°17'0 0.0
2016-May-10 20:33N 34°42' E 135°17'0 0.0
2016-May-10 19:33N 34°42' E 135°17'0 0.0
2016-May-10 18:33N 34°42' E 135°17'0 0.0
2016-May-10 17:33N 34°42' E 135°17'0 0.0
2016-May-10 16:33N 34°42' E 135°17'0 0.0
2016-May-10 15:33N 34°42' E 135°17'0 0.0
2016-May-10 14:33N 34°42' E 135°17'0 0.0
2016-May-10 13:33N 34°42' E 135°17'0 0.0
2016-May-10 12:27N 34°42' E 135°17'0 0.0
2016-May-10 11:33N 34°42' E 135°17'0 0.0
2016-May-10 10:33N 34°42' E 135°17'0 0.0
2016-May-10 09:33N 34°42' E 135°17'0 0.0
2016-May-10 08:33N 34°42' E 135°17'0 0.0
2016-May-10 07:30N 34°42' E 135°17'0 0.0
2016-May-10 06:30N 34°42' E 135°17'0 0.0
2016-May-10 05:30N 34°42' E 135°17'0 0.0
2016-May-10 04:30N 34°42' E 135°17'0 0.0
2016-May-10 03:30N 34°42' E 135°17'0 0.0
2016-May-10 02:30N 34°42' E 135°17'0 0.0
2016-May-10 01:30N 34°42' E 135°17'1 0.7
2016-May-10 00:33N 34°42' E 135°18'9 8.8
2016-May-09 23:33N 34°33' E 135°15'1110.9
2016-May-09 22:33N 34°25' E 135°06'1110.7
2016-May-09 21:32N 34°16' E 134°59'1111.2
2016-May-09 20:33N 34°05' E 134°59'232 6.1
2016-May-08 06:24N 34°42' E 139°36'1211.8
2016-May-08 05:22N 34°46' E 139°50'1111.1
2016-May-08 04:22N 34°52' E 140°02'911.2
2016-May-08 03:33N 34°58' E 140°10'2410.7
2016-May-08 01:22N 35°13' E 140°33'1810.1
2016-May-07 23:33N 35°27' E 140°46'1010.1
2016-May-07 22:33N 35°35' E 140°54'1010.2
2016-May-07 21:32N 35°44' E 140°60'1110.9
2016-May-07 20:33N 35°55' E 141°01'1111.1
2016-May-07 19:33N 36°06' E 141°02'1111.2
2016-May-07 18:33N 36°17' E 141°02'1211.5
2016-May-07 17:32N 36°29' E 141°04'  
2016-May-03 10:30N 36°10' E 141°02'2811.8
2016-May-03 08:07N 35°42' E 140°59'712.2
2016-May-03 07:32N 35°36' E 140°55'1313.4
2016-May-03 06:33N 35°25' E 140°45'1613.7
2016-May-03 05:25N 35°13' E 140°33'2412.7
2016-May-03 03:32N 34°59' E 140°10'1312.5
2016-May-03 02:30N 34°52' E 139°57'  

Dump ship's entire track history